createdAt,value
2018-10-11T00:02:28.800Z,100134.41
2018-10-11T00:04:57.588Z,100121.47
2018-10-11T00:07:26.417Z,100126.52
2018-10-11T00:09:55.218Z,100124.25
2018-10-11T00:12:23.980Z,100127.02
2018-10-11T00:14:52.704Z,100114.13
2018-10-11T00:17:21.448Z,100118.69
2018-10-11T00:19:50.223Z,100110.21
2018-10-11T00:22:18.932Z,100112.98
2018-10-11T00:24:47.674Z,100112.25
2018-10-11T00:27:16.428Z,100103.30
2018-10-11T00:29:45.172Z,100099.61
2018-10-11T00:32:13.912Z,100094.64
2018-10-11T00:34:42.623Z,100090.94
2018-10-11T00:37:11.369Z,100102.05
2018-10-11T00:39:40.095Z,100095.25
2018-10-11T00:42:08.851Z,100094.47
2018-10-11T00:44:37.577Z,100106.62
2018-10-11T00:47:06.313Z,100102.94
2018-10-11T00:49:35.154Z,100105.11
2018-10-11T00:52:03.800Z,100108.22
2018-10-11T00:54:32.578Z,100107.74
2018-10-11T00:57:01.315Z,100105.73
2018-10-11T00:59:30.045Z,100098.45
2018-10-11T01:01:58.773Z,100090.21
2018-10-11T01:04:27.513Z,100094.29
2018-10-11T01:06:56.314Z,100086.18
2018-10-11T01:09:25.179Z,100088.55
2018-10-11T01:11:53.850Z,100092.49
2018-10-11T01:14:22.594Z,100087.85
2018-10-11T01:16:51.381Z,100079.27
2018-10-11T01:19:20.150Z,100082.84
2018-10-11T01:21:48.961Z,100074.27
2018-10-11T01:24:17.730Z,100065.20
2018-10-11T01:26:46.450Z,100053.73
2018-10-11T01:29:15.140Z,100055.42
2018-10-11T01:31:43.876Z,100061.62
2018-10-11T01:34:12.769Z,100064.39
2018-10-11T01:36:41.558Z,100059.12
2018-10-11T01:39:10.300Z,100065.70
2018-10-11T01:41:39.167Z,100062.23
2018-10-11T01:44:07.921Z,100060.55
2018-10-11T01:46:36.760Z,100059.38
2018-10-11T01:49:05.554Z,100058.55
2018-10-11T01:51:34.376Z,100051.75
2018-10-11T01:54:03.136Z,100053.53
2018-10-11T01:56:31.941Z,100040.64
2018-10-11T01:59:00.722Z,100037.69
2018-10-11T02:01:29.511Z,100030.89
2018-10-11T02:03:58.241Z,100030.16
2018-10-11T02:06:27.101Z,100033.41
2018-10-11T02:08:55.849Z,100026.13
2018-10-11T02:11:24.564Z,100019.11
2018-10-11T02:13:53.319Z,100023.75
2018-10-11T02:16:22.058Z,100020.54
2018-10-11T02:18:50.764Z,100013.84
2018-10-11T02:21:19.528Z,100002.98
2018-10-11T02:23:48.300Z,99997.98
2018-10-11T02:26:18.591Z,99995.83
2018-10-11T02:28:47.440Z,99995.59
2018-10-11T02:31:16.238Z,99980.70
2018-10-11T02:33:44.953Z,99975.81
2018-10-11T02:36:13.708Z,99961.02
2018-10-11T02:38:42.462Z,99955.06
2018-10-11T02:41:11.237Z,99955.53
2018-10-11T02:43:40.025Z,99942.55
2018-10-11T02:46:08.818Z,99937.63
2018-10-11T02:48:37.605Z,99944.11
2018-10-11T02:51:06.579Z,99937.19
2018-10-11T02:53:35.348Z,99929.92
2018-10-11T02:56:04.409Z,99930.39
2018-10-11T02:58:44.021Z,99933.16
2018-10-11T03:01:12.879Z,99915.73
2018-10-11T03:03:41.769Z,99899.76
2018-10-11T03:06:10.605Z,99898.59
2018-10-11T03:08:39.470Z,99911.81
2018-10-11T03:11:08.346Z,99911.95
2018-10-11T03:13:37.106Z,99904.33
2018-10-11T03:16:05.882Z,99907.04
2018-10-11T03:18:34.642Z,99910.03
2018-10-11T03:21:03.468Z,99904.78
2018-10-11T03:23:32.176Z,99887.72
2018-10-11T03:26:00.917Z,99880.33
2018-10-11T03:28:29.652Z,99879.48
2018-10-11T03:30:58.393Z,99879.16
2018-10-11T03:33:27.138Z,99862.09
2018-10-11T03:35:55.923Z,99851.92
2018-10-11T03:38:24.686Z,99851.45
2018-10-11T03:40:53.444Z,99849.67
2018-10-11T03:43:22.204Z,99848.36
2018-10-11T03:45:50.976Z,99847.05
2018-10-11T03:48:19.761Z,99860.86
2018-10-11T03:50:48.524Z,99866.11
2018-10-11T03:53:17.300Z,99883.88
2018-10-11T03:55:46.028Z,99880.30
2018-10-11T03:58:14.776Z,99876.25
2018-10-11T04:00:43.593Z,99881.14
2018-10-11T04:03:12.337Z,99873.73
2018-10-11T04:05:41.079Z,99869.44
2018-10-11T04:08:09.815Z,99865.64
2018-10-11T04:10:38.572Z,99851.67
2018-10-11T04:13:07.286Z,99856.59
2018-10-11T04:15:36.101Z,99837.86
2018-10-11T04:18:04.832Z,99845.03
2018-10-11T04:20:33.549Z,99848.97
2018-10-11T04:23:02.334Z,99858.73
2018-10-11T04:25:31.111Z,99854.94
2018-10-11T04:27:59.881Z,99859.35
2018-10-11T04:30:28.643Z,99859.02
2018-10-11T04:32:57.727Z,99867.84
2018-10-11T04:35:26.784Z,99869.63
2018-10-11T04:37:55.539Z,99876.66
2018-10-11T04:40:24.320Z,99879.42
2018-10-11T04:42:53.163Z,99868.56
2018-10-11T04:45:21.851Z,99861.16
2018-10-11T04:47:50.641Z,99849.02
2018-10-11T04:50:19.432Z,99851.28
2018-10-11T04:52:48.165Z,99847.34
2018-10-11T04:55:16.895Z,99849.37
2018-10-11T04:57:45.618Z,99854.52
2018-10-11T05:00:14.361Z,99844.02
2018-10-11T05:02:43.119Z,99837.09
2018-10-11T05:05:11.945Z,99842.34
2018-10-11T05:07:40.659Z,99856.44
2018-10-11T05:10:09.629Z,99856.44
2018-10-11T05:12:38.404Z,99865.26
2018-10-11T05:15:07.770Z,99868.02
2018-10-11T05:17:36.699Z,99859.31
2018-10-11T05:20:05.528Z,99855.85
2018-10-11T05:22:34.259Z,99863.83
2018-10-11T05:25:03.045Z,99858.95
2018-10-11T05:27:31.821Z,99865.64
2018-10-11T05:30:00.627Z,99859.89
2018-10-11T05:32:29.514Z,99860.40
2018-10-11T05:34:58.297Z,99860.40
2018-10-11T05:37:27.030Z,99876.61
2018-10-11T05:39:56.000Z,99889.36
2018-10-11T05:42:24.992Z,99890.34
2018-10-11T05:44:59.039Z,99896.53
2018-10-11T05:47:27.866Z,99898.45
2018-10-11T05:49:56.667Z,99898.09
2018-10-11T05:52:25.527Z,99899.64
2018-10-11T05:54:54.378Z,99895.02
2018-10-11T05:57:23.216Z,99890.01
2018-10-11T05:59:52.044Z,99897.51
2018-10-11T06:02:20.868Z,99892.17
2018-10-11T06:04:49.735Z,99895.41
2018-10-11T06:07:18.697Z,99898.27
2018-10-11T06:09:47.539Z,99899.21
2018-10-11T06:12:17.061Z,99893.73
2018-10-11T06:14:46.367Z,99893.38
2018-10-11T06:17:15.160Z,99893.98
2018-10-11T06:19:44.025Z,99895.42
2018-10-11T06:22:12.815Z,99886.83
2018-10-11T06:24:41.677Z,99893.98
2018-10-11T06:27:10.440Z,99895.30
2018-10-11T06:29:39.247Z,99899.37
2018-10-11T06:32:08.155Z,99910.19
2018-10-11T06:34:36.962Z,99923.81
2018-10-11T06:37:05.769Z,99935.33
2018-10-11T06:39:34.661Z,99937.38
2018-10-11T06:42:03.450Z,99938.08
2018-10-11T06:44:32.373Z,99936.17
2018-10-11T06:47:01.303Z,99937.70
2018-10-11T06:49:30.127Z,99936.63
2018-10-11T06:51:59.024Z,99940.09
2018-10-11T06:54:27.882Z,99937.23
2018-10-11T06:56:56.619Z,99932.34
2018-10-11T06:59:25.428Z,99934.37
2018-10-11T07:01:54.188Z,99932.92
2018-10-11T07:04:22.896Z,99943.64
2018-10-11T07:06:51.673Z,99946.27
2018-10-11T07:09:20.418Z,99936.14
2018-10-11T07:11:49.148Z,99946.86
2018-10-11T07:14:17.910Z,99948.17
2018-10-11T07:16:46.661Z,99955.09
2018-10-11T07:19:15.446Z,99953.78
2018-10-11T07:21:44.196Z,99961.66
2018-10-11T07:24:13.004Z,99961.29
2018-10-11T07:26:41.764Z,99955.94
2018-10-11T07:29:10.579Z,99959.03
2018-10-11T07:31:39.309Z,99965.92
2018-10-11T07:34:08.072Z,99967.13
2018-10-11T07:36:36.913Z,99967.00
2018-10-11T07:39:09.132Z,99960.81
2018-10-11T07:41:38.208Z,99960.67
2018-10-11T07:44:07.392Z,99967.46
2018-10-11T07:46:36.180Z,99961.27
2018-10-11T07:49:06.025Z,99968.53
2018-10-11T07:51:34.835Z,99968.76
2018-10-11T07:54:03.796Z,99961.12
2018-10-11T07:56:33.724Z,99960.17
2018-10-11T07:59:02.681Z,99963.86
2018-10-11T08:01:31.716Z,99954.44
2018-10-11T08:04:00.581Z,99951.43
2018-10-11T08:06:29.390Z,99951.19
2018-10-11T08:08:58.257Z,99948.31
2018-10-11T08:11:27.205Z,99955.80
2018-10-11T08:13:55.883Z,99953.77
2018-10-11T08:16:24.784Z,99946.48
2018-10-11T08:18:53.576Z,99955.77
2018-10-11T08:21:22.216Z,99945.38
2018-10-11T08:23:51.004Z,99944.04
2018-10-11T08:26:20.068Z,99941.06
2018-10-11T08:28:48.524Z,99938.77
2018-10-11T08:31:17.333Z,99945.30
2018-10-11T08:33:46.119Z,99936.89
2018-10-11T08:36:14.850Z,99939.02
2018-10-11T08:38:43.605Z,99940.77
2018-10-11T08:41:12.354Z,99942.89
2018-10-11T08:43:41.143Z,99944.64
2018-10-11T08:46:09.916Z,99946.54
2018-10-11T08:48:38.692Z,99949.39
2018-10-11T08:51:07.476Z,99950.55
2018-10-11T08:53:36.307Z,99954.39
2018-10-11T08:56:05.060Z,99958.33
2018-10-11T08:58:33.797Z,99952.45
2018-10-11T09:01:02.668Z,99949.56
2018-10-11T09:03:31.467Z,99944.42
2018-10-11T09:06:00.261Z,99931.09
2018-10-11T09:08:29.077Z,99933.63
2018-10-11T09:10:57.962Z,99923.19
2018-10-11T09:13:26.689Z,99914.34
2018-10-11T09:15:55.426Z,99910.55
2018-10-11T09:18:24.191Z,99909.30
2018-10-11T09:20:52.966Z,99889.11
2018-10-11T09:23:21.820Z,99897.95
2018-10-11T09:25:50.546Z,99902.30
2018-10-11T09:28:19.417Z,99901.72
2018-10-11T09:30:48.215Z,99887.41
2018-10-11T09:33:16.964Z,99884.56
2018-10-11T09:35:45.744Z,99878.95
2018-10-11T09:38:14.541Z,99872.78
2018-10-11T09:40:43.333Z,99875.95
2018-10-11T09:43:12.165Z,99867.27
2018-10-11T09:45:40.958Z,99863.65
2018-10-11T09:48:09.679Z,99849.81
2018-10-11T09:50:38.500Z,99840.77
2018-10-11T09:53:07.290Z,99837.62
2018-10-11T09:55:36.132Z,99840.25
2018-10-11T09:58:04.912Z,99834.31
2018-10-11T10:00:37.771Z,99831.83
2018-10-11T10:03:06.721Z,99827.45
2018-10-11T10:05:35.502Z,99823.52
2018-10-11T10:08:04.303Z,99819.69
2018-10-11T10:10:33.086Z,99827.36
2018-10-11T10:13:01.876Z,99825.14
2018-10-11T10:15:30.700Z,99824.66
2018-10-11T10:17:59.456Z,99827.88
2018-10-11T10:20:28.290Z,99825.30
2018-10-11T10:22:57.092Z,99822.61
2018-10-11T10:25:25.840Z,99815.46
2018-10-11T10:27:54.627Z,99816.92
2018-10-11T10:30:28.606Z,99803.33
2018-10-11T10:32:57.412Z,99809.08
2018-10-11T10:35:26.200Z,99798.84
2018-10-11T10:37:55.006Z,99801.03
2018-10-11T10:40:23.732Z,99793.73
2018-10-11T10:42:52.488Z,99787.94
2018-10-11T10:45:21.316Z,99791.78
2018-10-11T10:47:50.115Z,99779.13
2018-10-11T10:50:18.881Z,99782.11
2018-10-11T10:52:48.542Z,99779.34
2018-10-11T10:55:17.301Z,99772.98
2018-10-11T10:57:46.070Z,99768.57
2018-10-11T11:00:14.915Z,99762.59
2018-10-11T11:02:43.676Z,99756.70
2018-10-11T11:05:12.469Z,99779.87
2018-10-11T11:07:41.272Z,99769.11
2018-10-11T11:10:10.040Z,99775.52
2018-10-11T11:12:38.798Z,99764.42
2018-10-11T11:15:07.638Z,99765.37
2018-10-11T11:17:36.434Z,99758.76
2018-10-11T11:20:05.247Z,99769.42
2018-10-11T11:22:34.155Z,99775.69
2018-10-11T11:25:02.924Z,99771.48
2018-10-11T11:27:31.639Z,99765.64
2018-10-11T11:30:00.389Z,99768.74
2018-10-11T11:32:29.115Z,99780.69
2018-10-11T11:34:57.896Z,99768.17
2018-10-11T11:37:26.608Z,99770.94
2018-10-11T11:39:55.378Z,99767.48
2018-10-11T11:42:24.095Z,99780.47
2018-10-11T11:44:52.856Z,99775.21
2018-10-11T11:47:21.544Z,99771.16
2018-10-11T11:49:50.297Z,99765.91
2018-10-11T11:52:19.678Z,99763.61
2018-10-11T11:54:48.431Z,99774.73
2018-10-11T11:57:17.253Z,99766.86
2018-10-11T11:59:46.037Z,99769.48
2018-10-11T12:02:14.874Z,99758.34
2018-10-11T12:04:43.634Z,99756.44
2018-10-11T12:07:12.408Z,99759.55
2018-10-11T12:09:41.195Z,99769.84
2018-10-11T12:12:10.424Z,99764.59
2018-10-11T12:14:39.148Z,99779.99
2018-10-11T12:17:07.968Z,99788.56
2018-10-11T12:19:36.736Z,99791.08
2018-10-11T12:22:05.586Z,99797.23
2018-10-11T12:24:34.366Z,99799.96
2018-10-11T12:27:03.092Z,99801.61
2018-10-11T12:29:31.901Z,99812.95
2018-10-11T12:32:00.660Z,99812.48
2018-10-11T12:34:29.380Z,99822.36
2018-10-11T12:36:58.065Z,99831.45
2018-10-11T12:39:26.719Z,99826.73
2018-10-11T12:41:55.476Z,99821.58
2018-10-11T12:44:24.169Z,99845.56
2018-10-11T12:46:52.947Z,99849.55
2018-10-11T12:49:21.735Z,99874.40
2018-10-11T12:51:50.506Z,99892.76
2018-10-11T12:54:19.268Z,99912.47
2018-10-11T12:56:47.980Z,99935.81
2018-10-11T12:59:16.715Z,99945.25
2018-10-11T13:01:45.441Z,99952.05
2018-10-11T13:04:14.189Z,99985.19
2018-10-11T13:06:42.899Z,99978.39
2018-10-11T13:09:11.715Z,99967.91
2018-10-11T13:11:40.496Z,99955.27
2018-10-11T13:14:09.292Z,99958.73
2018-10-11T13:16:38.033Z,99951.58
2018-10-11T13:19:06.798Z,99959.20
2018-10-11T13:21:35.660Z,99956.69
2018-10-11T13:24:04.571Z,99970.63
2018-10-11T13:26:33.346Z,99975.97
2018-10-11T13:29:02.260Z,99988.27
2018-10-11T13:31:30.994Z,99993.63
2018-10-11T13:33:59.785Z,100011.27
2018-10-11T13:36:28.643Z,100016.04
2018-10-11T13:38:57.408Z,100021.59
2018-10-11T13:41:26.365Z,100026.39
2018-10-11T13:43:55.090Z,100045.77
2018-10-11T13:46:23.849Z,100044.66
2018-10-11T13:48:52.589Z,100045.70
2018-10-11T13:51:21.332Z,100060.69
2018-10-11T13:53:55.482Z,100069.45
2018-10-11T13:56:19.033Z,100077.92
2018-10-11T13:58:47.898Z,100073.44
2018-10-11T14:01:16.704Z,100074.78
2018-10-11T14:03:46.080Z,100067.44
2018-10-11T14:06:15.258Z,100073.17
2018-10-11T14:08:44.090Z,100067.17
2018-10-11T14:11:12.827Z,100067.66
2018-10-11T14:13:41.698Z,100059.36
2018-10-11T14:16:10.446Z,100068.23
2018-10-11T14:18:39.667Z,100074.80
2018-10-11T14:21:09.474Z,100081.12
2018-10-11T14:23:38.710Z,100080.36
2018-10-11T14:26:07.859Z,100086.59
2018-10-11T14:28:38.569Z,100089.49
2018-10-11T14:31:07.409Z,100096.33
2018-10-11T14:33:36.139Z,100105.31
2018-10-11T14:36:04.926Z,100120.73
2018-10-11T14:38:35.026Z,100122.34
2018-10-11T14:41:03.806Z,100133.78
2018-10-11T14:43:32.658Z,100142.26
2018-10-11T14:46:01.329Z,100151.55
2018-10-11T14:48:30.256Z,100151.63
2018-10-11T14:50:59.173Z,100151.45
2018-10-11T14:53:27.913Z,100159.52
2018-10-11T14:55:56.704Z,100160.59
2018-10-11T14:58:25.664Z,100155.45
2018-10-11T15:00:54.484Z,100164.23
2018-10-11T15:03:23.492Z,100170.07
2018-10-11T15:05:52.207Z,100170.38
2018-10-11T15:08:20.980Z,100178.27
2018-10-11T15:10:49.767Z,100194.99
2018-10-11T15:13:18.504Z,100218.92
2018-10-11T15:15:47.448Z,100225.91
2018-10-11T15:18:16.430Z,100210.56
2018-10-11T15:20:45.223Z,100208.69
2018-10-11T15:23:13.990Z,100211.78
2018-10-11T15:25:42.806Z,100204.52
2018-10-11T15:28:11.600Z,100205.71
2018-10-11T15:30:40.490Z,100208.55
2018-10-11T15:33:09.877Z,100204.95
2018-10-11T15:35:38.809Z,100210.06
2018-10-11T15:38:16.139Z,100217.56
2018-10-11T15:40:45.443Z,100213.00
2018-10-11T15:43:14.249Z,100216.48
2018-10-11T15:45:43.033Z,100229.22
2018-10-11T15:48:11.777Z,100237.50
2018-10-11T15:50:40.648Z,100246.50
2018-10-11T15:53:09.560Z,100245.51
2018-10-11T15:55:38.345Z,100246.54
2018-10-11T15:58:07.179Z,100245.31
2018-10-11T16:00:35.932Z,100240.56
2018-10-11T16:03:04.703Z,100246.87
2018-10-11T16:05:33.542Z,100246.23
2018-10-11T16:08:02.276Z,100238.17
2018-10-11T16:10:31.032Z,100229.64
2018-10-11T16:12:59.845Z,100238.30
2018-10-11T16:15:28.634Z,100243.61
2018-10-11T16:17:57.456Z,100243.05
2018-10-11T16:20:26.223Z,100245.10
2018-10-11T16:22:54.976Z,100246.95
2018-10-11T16:25:23.720Z,100253.30
2018-10-11T16:27:52.492Z,100261.36
2018-10-11T16:30:21.240Z,100268.45
2018-10-11T16:32:49.941Z,100274.17
2018-10-11T16:35:18.652Z,100275.48
2018-10-11T16:37:47.385Z,100264.95
2018-10-11T16:40:16.092Z,100262.06
2018-10-11T16:42:44.827Z,100265.17
2018-10-11T16:45:13.708Z,100259.45
2018-10-11T16:47:42.493Z,100267.55
2018-10-11T16:50:11.311Z,100273.89
2018-10-11T16:52:40.047Z,100272.08
2018-10-11T16:55:08.808Z,100273.69
2018-10-11T16:57:37.527Z,100277.07
2018-10-11T17:00:06.731Z,100275.73
2018-10-11T17:02:35.578Z,100283.26
2018-10-11T17:05:04.399Z,100299.80
2018-10-11T17:07:33.162Z,100313.71
2018-10-11T17:10:02.062Z,100306.85
2018-10-11T17:12:30.642Z,100291.80
2018-10-11T17:14:59.437Z,100295.42
2018-10-11T17:17:28.972Z,100294.34
2018-10-11T17:19:57.695Z,100304.52
2018-10-11T17:22:26.487Z,100300.67
2018-10-11T17:24:55.208Z,100297.87
2018-10-11T17:27:24.223Z,100299.72
2018-10-11T17:29:53.004Z,100292.02
2018-10-11T17:32:21.807Z,100282.16
2018-10-11T17:34:50.654Z,100291.03
2018-10-11T17:37:19.355Z,100302.64
2018-10-11T17:39:48.106Z,100327.66
2018-10-11T17:42:17.031Z,100346.92
2018-10-11T17:44:45.854Z,100345.00
2018-10-11T17:47:22.812Z,100346.45
2018-10-11T17:49:51.654Z,100345.98
2018-10-11T17:52:20.469Z,100354.34
2018-10-11T17:54:52.122Z,100339.66
2018-10-11T17:57:21.414Z,100349.69
2018-10-11T17:59:50.215Z,100351.84
2018-10-11T18:02:20.159Z,100340.72
2018-10-11T18:04:49.454Z,100342.63
2018-10-11T18:07:18.433Z,100351.21
2018-10-11T18:09:47.355Z,100348.95
2018-10-11T18:12:16.220Z,100353.25
2018-10-11T18:14:44.991Z,100360.58
2018-10-11T18:17:13.762Z,100375.39
2018-10-11T18:19:42.737Z,100375.27
2018-10-11T18:22:11.550Z,100376.91
2018-10-11T18:24:40.475Z,100378.67
2018-10-11T18:27:09.368Z,100372.35
2018-10-11T18:29:38.215Z,100382.10
2018-10-11T18:32:07.067Z,100392.95
2018-10-11T18:34:36.103Z,100384.92
2018-10-11T18:37:04.908Z,100382.28
2018-10-11T18:39:33.767Z,100383.47
2018-10-11T18:42:02.515Z,100381.76
2018-10-11T18:44:31.445Z,100377.33
2018-10-11T18:47:00.140Z,100383.86
2018-10-11T18:49:28.895Z,100385.98
2018-10-11T18:51:57.604Z,100391.11
2018-10-11T18:54:26.317Z,100398.44
2018-10-11T18:56:55.165Z,100403.09
2018-10-11T18:59:23.940Z,100402.93
2018-10-11T19:01:52.655Z,100399.34
2018-10-11T19:04:21.420Z,100410.63
2018-10-11T19:06:50.146Z,100406.45
2018-10-11T19:09:18.999Z,100403.19
2018-10-11T19:11:47.784Z,100414.73
2018-10-11T19:14:16.622Z,100418.04
2018-10-11T19:16:45.387Z,100426.48
2018-10-11T19:19:14.155Z,100424.98
2018-10-11T19:21:42.963Z,100428.39
2018-10-11T19:24:11.717Z,100426.29
2018-10-11T19:26:40.543Z,100433.44
2018-10-11T19:29:09.323Z,100431.98
2018-10-11T19:31:38.032Z,100436.47
2018-10-11T19:34:06.890Z,100428.86
2018-10-11T19:36:35.615Z,100430.84
2018-10-11T19:39:04.769Z,100431.52
2018-10-11T19:41:33.487Z,100428.64
2018-10-11T19:44:02.305Z,100439.33
2018-10-11T19:46:31.060Z,100433.45
2018-10-11T19:48:59.817Z,100431.53
2018-10-11T19:51:28.609Z,100433.89
2018-10-11T19:53:57.339Z,100437.19
2018-10-11T19:56:26.101Z,100436.08
2018-10-11T19:58:54.820Z,100431.52
2018-10-11T20:01:23.526Z,100431.38
2018-10-11T20:03:52.266Z,100445.14
2018-10-11T20:06:21.030Z,100445.25
2018-10-11T20:08:49.766Z,100448.45
2018-10-11T20:11:18.546Z,100447.35
2018-10-11T20:13:47.284Z,100457.06
2018-10-11T20:16:16.047Z,100458.49
2018-10-11T20:18:44.804Z,100456.19
2018-10-11T20:21:13.608Z,100454.24
2018-10-11T20:23:42.348Z,100464.33
2018-10-11T20:26:11.104Z,100471.00
2018-10-11T20:28:39.874Z,100463.72
2018-10-11T20:31:08.741Z,100450.06
2018-10-11T20:33:37.544Z,100453.45
2018-10-11T20:36:06.457Z,100456.99
2018-10-11T20:38:35.315Z,100466.36
2018-10-11T20:41:04.144Z,100463.94
2018-10-11T20:43:32.959Z,100457.05
2018-10-11T20:46:01.730Z,100461.17
2018-10-11T20:48:30.493Z,100469.11
2018-10-11T20:50:59.308Z,100468.38
2018-10-11T20:53:28.068Z,100481.58
2018-10-11T20:55:56.799Z,100485.59
2018-10-11T20:58:25.627Z,100479.23
2018-10-11T21:00:54.416Z,100468.69
2018-10-11T21:03:23.202Z,100452.60
2018-10-11T21:05:52.018Z,100449.52
2018-10-11T21:08:20.778Z,100466.27
2018-10-11T21:10:49.548Z,100479.93
2018-10-11T21:13:18.279Z,100486.66
2018-10-11T21:15:46.977Z,100487.21
2018-10-11T21:18:15.663Z,100495.06
2018-10-11T21:20:44.415Z,100485.55
2018-10-11T21:23:13.205Z,100480.89
2018-10-11T21:25:41.956Z,100483.28
2018-10-11T21:28:10.816Z,100473.47
2018-10-11T21:30:39.547Z,100457.30
2018-10-11T21:33:08.297Z,100416.73
2018-10-11T21:35:37.021Z,100394.50
2018-10-11T21:38:06.227Z,100408.25
2018-10-11T21:40:34.957Z,100426.67
2018-10-11T21:43:03.715Z,100428.91
2018-10-11T21:45:32.518Z,100437.14
2018-10-11T21:48:01.228Z,100433.56
2018-10-11T21:50:30.028Z,100436.95
2018-10-11T21:52:58.776Z,100458.23
2018-10-11T21:55:27.480Z,100462.92
2018-10-11T21:57:56.242Z,100465.53
2018-10-11T22:00:29.112Z,100463.00
2018-10-11T22:02:57.877Z,100470.85
2018-10-11T22:05:26.610Z,100464.31
2018-10-11T22:07:55.400Z,100442.27
2018-10-11T22:10:24.195Z,100446.11
2018-10-11T22:12:52.968Z,100443.84
2018-10-11T22:15:21.662Z,100434.59
2018-10-11T22:17:50.364Z,100438.06
2018-10-11T22:20:19.142Z,100431.98
2018-10-11T22:22:47.923Z,100440.45
2018-10-11T22:25:16.690Z,100441.98
2018-10-11T22:27:45.428Z,100448.02
2018-10-11T22:30:14.224Z,100452.20
2018-10-11T22:32:42.967Z,100440.89
2018-10-11T22:35:11.762Z,100441.34
2018-10-11T22:37:40.549Z,100433.37
2018-10-11T22:40:09.321Z,100431.59
2018-10-11T22:42:38.392Z,100434.22
2018-10-11T22:45:07.171Z,100428.86
2018-10-11T22:47:35.884Z,100434.59
2018-10-11T22:50:04.968Z,100439.33
2018-10-11T22:52:33.740Z,100429.91
2018-10-11T22:55:02.543Z,100435.33
2018-10-11T22:57:31.349Z,100433.17
2018-10-11T23:00:00.120Z,100423.54
2018-10-11T23:02:28.869Z,100423.89
2018-10-11T23:04:57.629Z,100420.55
2018-10-11T23:07:26.433Z,100425.96
2018-10-11T23:09:55.317Z,100425.00
2018-10-11T23:12:24.419Z,100420.14
2018-10-11T23:14:53.448Z,100403.45
2018-10-11T23:17:22.168Z,100410.13
2018-10-11T23:19:50.900Z,100417.78
2018-10-11T23:22:19.681Z,100411.70
2018-10-11T23:24:48.396Z,100418.31
2018-10-11T23:27:17.152Z,100402.98
2018-10-11T23:29:45.844Z,100401.55
2018-10-11T23:32:14.540Z,100398.20
2018-10-11T23:34:43.293Z,100410.52
2018-10-11T23:37:12.008Z,100405.08
2018-10-11T23:39:40.708Z,100408.06
2018-10-11T23:42:09.415Z,100402.25
2018-10-11T23:44:38.221Z,100392.16
2018-10-11T23:47:07.111Z,100385.86
2018-10-11T23:49:35.883Z,100369.65
2018-10-11T23:52:04.708Z,100366.83
2018-10-11T23:54:33.560Z,100360.28
2018-10-11T23:57:02.338Z,100350.90
2018-10-11T23:59:31.099Z,100339.28
